Latest Weather Observations for Albion Park

IDN60801

Issued at 7:22 am EDT Monday 18 November 2019 (issued every 10 minutes, with the page automatically refreshed every 10 minutes)

About weather observations | Map of weather stations | Latest weather observations for NSW | Other Formats
Station Details ID: 068241 Name: SHELLHARBOUR AIRPORT Lat: -34.56 Lon: 150.79 Height: 8.0 m
Data from the previous 72 hours. | See also: Recent months at Albion Park
Date/Time
EDT
Temp
°C
App
Temp
°C
Dew
Point
°C
Rel
Hum
%
Delta-T
°C
Wind Press
QNH
hPa
Press
MSL
hPa
Rain since
9am
mm
Dir  Spd
km/h
Gust
km/h
Spd
kts
Gust
kts
18/07:00am 14.4 14.7 12.3 87 1.1 NE 2 6 1 3 1018.9 1018.9 0.0
18/06:30am 12.2 11.5 11.3 94 0.5 W 6 7 3 4 1018.7 1018.7 0.0
18/06:00am 12.2 12.1 10.9 92 0.7 W 2 9 1 5 1018.5 1018.5 0.0
18/05:30am 13.1 12.3 11.7 91 0.7 W 7 9 4 5 1018.6 1018.6 0.0
18/05:00am 13.2 12.3 11.3 88 1.0 W 7 9 4 5 1018.3 1018.3 0.0
18/04:30am 13.5 14.0 11.6 88 1.0 CALM 0 0 0 0 1018.6 1018.6 0.0
18/04:00am 14.1 13.3 11.8 86 1.2 W 7 7 4 4 1018.9 1018.9 0.0
18/03:30am 13.8 13.6 11.7 87 1.1 WSW 4 6 2 3 1019.1 1019.1 0.0
18/03:00am 14.4 13.7 11.9 85 1.3 W 7 7 4 4 1019.4 1019.4 0.0
18/02:30am 14.8 15.4 11.9 83 1.6 CALM 0 0 0 0 1019.6 1019.6 0.0
18/02:00am 15.0 14.5 12.0 82 1.6 W 6 7 3 4 1019.8 1019.8 0.0
18/01:30am 15.4 14.8 11.8 79 1.9 WNW 6 7 3 4 1020.2 1020.2 0.0
18/01:00am 15.4 14.7 12.0 80 1.8 W 7 9 4 5 1020.7 1020.7 0.0
18/12:30am 15.5 14.8 12.1 80 1.9 W 7 9 4 5 1021.0 1021.0 0.0
18/12:00am 15.5 15.0 11.9 79 1.9 SSW 6 7 3 4 1021.1 1021.1 0.0
 
Date/Time
EDT
Temp
°C
App
Temp
°C
Dew
Point
°C
Rel
Hum
%
Delta-T
°C
Wind Press
QNH
hPa
Press
MSL
hPa
Rain since
9am
mm
Dir  Spd
km/h
Gust
km/h
Spd
kts
Gust
kts
17/11:30pm 15.4 14.9 12.0 80 1.8 SSW 6 7 3 4 1021.2 1021.2 0.0
17/11:00pm 15.6 15.1 12.2 80 1.8 S 6 7 3 4 1021.3 1021.3 0.0
17/10:30pm 15.6 15.5 12.2 80 1.9 SSW 4 6 2 3 1021.3 1021.3 0.0
17/10:00pm 15.6 15.2 12.4 81 1.7 SSW 6 7 3 4 1021.4 1021.4 0.0
17/09:30pm 15.7 16.1 12.5 81 1.8 SSW 2 9 1 5 1021.3 1021.3 0.0
17/09:00pm 15.4 14.8 12.3 82 1.7 SSW 7 11 4 6 1021.1 1021.1 0.0
17/08:30pm 15.1 15.9 12.4 84 1.5 CALM 0 6 0 3 1020.8 1020.8 0.0
17/08:00pm 15.4 13.7 12.5 83 1.6 S 13 15 7 8 1020.6 1020.6 0.0
17/07:30pm 15.9 14.5 12.1 78 2.1 S 11 15 6 8 1020.0 1020.0 0.0
17/07:00pm 16.3 14.8 11.9 75 2.4 SSE 11 17 6 9 1019.5 1019.5 0.0
17/06:30pm 16.5 14.0 11.2 71 2.9 SSE 15 20 8 11 1019.0 1019.0 0.0
17/06:00pm 16.8 14.4 11.5 71 2.9 SSE 15 22 8 12 1018.8 1018.8 0.0
17/05:30pm 17.3 14.4 10.9 66 3.4 SSE 17 22 9 12 1018.2 1018.2 0.0
17/05:00pm 17.7 15.3 11.5 67 3.4 SE 15 24 8 13 1018.1 1018.1 0.0
17/04:30pm 17.5 14.3 11.3 67 3.4 SE 19 26 10 14 1017.6 1017.6 0.0
17/04:00pm 17.8 15.1 11.6 67 3.4 SE 17 26 9 14 1017.2 1017.2 0.0
17/03:30pm 18.1 14.5 11.7 66 3.5 SE 22 35 12 19 1016.8 1016.8 0.0
17/03:00pm 18.5 15.3 11.8 65 3.7 SE 20 32 11 17 1016.9 1016.9 0.0
17/02:30pm 18.7 15.1 12.0 65 3.7 SE 22 32 12 17 1017.0 1017.0 0.0
17/02:00pm 19.7 15.7 12.9 65 3.8 SE 26 39 14 21 1017.0 1017.0 0.0
17/01:30pm 18.8 14.9 13.2 70 3.2 SE 26 37 14 20 1017.1 1017.1 0.0
17/01:00pm 19.6 16.9 13.5 68 3.5 SE 20 33 11 18 1016.9 1016.9 0.0
17/12:56pm 19.9 17.5 14.5 71 3.1 SE 20 32 11 17 1016.8 1016.8 0.0
17/12:30pm 18.7 16.6 15.2 80 2.1 SE 20 33 11 18 1016.9 1016.9 0.0
17/12:20pm 18.3 15.9 14.4 78 2.2 SE 20 32 11 17 1016.9 1016.9 0.0
17/12:00pm 20.2 17.2 13.6 66 3.8 SE 22 35 12 19 1016.8 1016.8 0.0
17/11:30am 19.9 16.1 13.6 67 3.6 ESE 26 39 14 21 1016.7 1016.7 0.0
17/11:10am 20.2 17.1 13.4 65 3.9 ESE 22 32 12 17 1016.7 1016.7 0.0
17/11:00am 20.7 17.4 13.9 65 3.9 ESE 24 35 13 19 1016.6 1016.6 0.0
17/10:54am 20.3 17.0 14.0 67 3.6 ESE 24 35 13 19 1016.6 1016.6 0.0
17/10:30am 20.3 17.3 13.7 66 3.8 ESE 22 30 12 16 1016.5 1016.5 0.0
17/10:00am 20.9 18.4 13.6 63 4.2 SE 19 28 10 15 1016.4 1016.4 0.0
17/09:30am 20.1 18.2 15.3 74 2.8 SSE 19 28 10 15 1016.5 1016.5 0.0
17/09:00am 19.1 17.4 14.6 75 2.6 SSE 17 24 9 13 1016.3 1016.3 0.2
17/08:30am 18.5 16.7 14.4 77 2.4 S 17 20 9 11 1016.0 1016.0 0.2
17/08:00am 17.8 17.4 15.1 84 1.6 S 11 17 6 9 1015.9 1015.9 0.2
17/07:30am 17.4 17.7 15.0 86 1.4 SSW 7 11 4 6 1015.5 1015.5 0.2
17/07:12am 16.9 17.9 15.4 91 0.9 WSW 4 9 2 5 1015.7 1015.7 0.2
17/07:00am 16.6 17.1 15.5 93 0.6 W 7 9 4 5 1015.6 1015.6 0.2
17/06:30am 15.9 16.5 15.3 96 0.3 SW 6 9 3 5 1015.5 1015.5 0.2
17/06:12am 16.1 16.4 15.1 94 0.6 SW 7 11 4 6 1015.5 1015.5 0.2
17/06:01am 16.2 16.5 15.1 93 0.6 SW 7 9 4 5 1015.4 1015.4 0.2
17/06:00am 16.2 16.5 15.1 93 0.6 SW 7 9 4 5 1015.3 1015.3 0.2
17/05:30am 16.3 16.8 15.0 92 0.8 SW 6 7 3 4 1015.3 1015.3 0.2
17/05:00am 15.8 16.8 15.3 97 0.3 W 4 7 2 4 1015.4 1015.4 0.2
17/04:30am 15.7 15.8 15.5 99 0.1 SW 9 9 5 5 1015.6 1015.6 0.2
17/04:00am 15.8 17.3 15.6 99 0.1 SW 2 6 1 3 1015.6 1015.6 0.2
17/03:53am 15.8 17.3 15.6 99 0.1 SW 2 6 1 3 1015.7 1015.7 0.2
17/03:43am 15.7 17.5 15.5 99 0.1 CALM 0 0 0 0 1015.9 1015.9 0.2
17/03:30am 15.6 17.4 15.4 99 0.1 CALM 0 0 0 0 1015.8 1015.8 0.2
17/03:00am 15.8 16.3 15.6 99 0.1 SW 7 9 4 5 1016.2 1016.2 0.2
17/02:30am 15.8 16.5 15.5 98 0.2 SW 6 9 3 5 1016.2 1016.2 0.2
17/02:00am 15.7 16.4 15.5 99 0.1 WSW 6 9 3 5 1016.3 1016.3 0.2
17/01:30am 15.8 15.6 15.6 99 0.1 WSW 11 15 6 8 1016.4 1016.4 0.2
17/01:00am 15.8 16.3 15.6 99 0.1 WSW 7 7 4 4 1016.1 1016.1 0.2
17/12:30am 16.0 16.6 15.8 99 0.1 SW 7 13 4 7 1016.7 1016.7 0.2
17/12:00am 15.9 16.5 15.4 97 0.3 S 6 7 3 4 1017.0 1017.0 0.2
 
Date/Time
EDT
Temp
°C
App
Temp
°C
Dew
Point
°C
Rel
Hum
%
Delta-T
°C
Wind Press
QNH
hPa
Press
MSL
hPa
Rain since
9am
mm
Dir  Spd
km/h
Gust
km/h
Spd
kts
Gust
kts
16/11:30pm 16.1 17.7 15.0 93 0.6 CALM 0 0 0 0 1017.6 1017.6 0.2
16/11:00pm 16.6 16.4 14.6 88 1.1 NE 9 13 5 7 1017.6 1017.6 0.0
16/10:56pm 16.8 16.5 14.4 86 1.4 ENE 9 13 5 7 1017.7 1017.7 0.0
16/10:30pm 17.6 16.6 13.5 77 2.3 ENE 11 20 6 11 1017.4 1017.4 0.0
16/10:00pm 17.9 17.3 13.4 75 2.5 E 9 13 5 7 1017.1 1017.1 0.0
16/09:40pm 17.9 16.9 13.4 75 2.5 E 11 15 6 8 1016.9 1016.9 0.0
16/09:30pm 17.9 17.3 13.4 75 2.5 E 9 13 5 7 1016.9 1016.9 0.0
16/09:00pm 17.9 16.5 13.4 75 2.5 E 13 15 7 8 1016.5 1016.5 0.0
16/08:30pm 18.0 17.0 13.3 74 2.7 E 11 15 6 8 1016.3 1016.3 0.0
16/08:00pm 18.0 16.5 13.1 73 2.8 ENE 13 17 7 9 1016.1 1016.1 0.0
16/07:30pm 17.9 15.9 12.8 72 2.8 E 15 19 8 10 1015.7 1015.7 0.0
16/07:00pm 18.1 15.7 12.8 71 3.0 ENE 17 20 9 11 1015.4 1015.4 0.0
16/06:30pm 18.1 16.0 12.5 70 3.1 ENE 15 20 8 11 1015.1 1015.1 0.0
16/06:00pm 18.3 16.2 12.5 69 3.2 ENE 15 22 8 12 1014.8 1014.8 0.0
16/05:30pm 18.6 16.7 13.0 70 3.2 ENE 15 22 8 12 1014.6 1014.6 0.0
16/05:00pm 18.4 16.0 12.8 70 3.1 NE 17 24 9 13 1014.7 1014.7 0.0
16/04:30pm 18.6 15.8 12.6 68 3.4 ENE 19 26 10 14 1014.6 1014.6 0.0
16/04:00pm 18.3 15.5 12.5 69 3.2 ENE 19 24 10 13 1014.9 1014.9 0.0
16/03:30pm 18.5 16.5 12.7 69 3.2 ENE 15 20 8 11 1014.8 1014.8 0.0
16/03:00pm 18.2 15.2 12.0 67 3.4 E 19 24 10 13 1015.2 1015.2 0.0
16/02:30pm 18.4 15.8 11.9 66 3.6 E 17 24 9 13 1015.6 1015.6 0.0
16/02:00pm 18.4 15.7 11.7 65 3.7 E 17 28 9 15 1015.9 1015.9 0.0
16/01:30pm 19.0 16.7 11.8 63 4.0 ENE 15 24 8 13 1015.8 1015.8 0.0
16/01:00pm 18.8 16.0 11.4 62 4.0 ENE 17 20 9 11 1016.1 1016.1 0.0
16/12:30pm 18.8 16.7 11.1 61 4.2 E 13 20 7 11 1016.4 1016.4 0.0
16/12:00pm 18.7 16.7 11.5 63 3.9 ESE 13 22 7 12 1016.7 1016.7 0.0
16/11:30am 19.2 16.8 11.5 61 4.2 ESE 15 20 8 11 1017.0 1017.0 0.0
16/11:00am 20.7 18.3 12.7 60 4.5 ESE 17 26 9 14 1017.0 1017.0 0.0
16/10:30am 19.7 17.1 12.0 61 4.3 E 17 20 9 11 1017.1 1017.1 0.0
16/10:00am 19.1 16.8 11.9 63 4.0 ESE 15 22 8 12 1016.9 1016.9 0.0
16/09:30am 18.3 15.6 11.6 65 3.7 SE 17 24 9 13 1016.9 1016.9 0.0
16/09:12am 18.1 15.7 12.5 70 3.1 SE 17 24 9 13 1016.8 1016.8 0.0
16/09:00am 18.3 15.5 12.5 69 3.2 SE 19 28 10 15 1016.8 1016.8 0.0
16/08:30am 18.3 16.3 12.7 70 3.1 SSE 15 20 8 11 1016.5 1016.5 0.0
16/08:22am 18.3 17.1 12.7 70 3.1 SSE 11 17 6 9 1016.5 1016.5 0.0
16/08:00am 17.8 16.7 13.1 74 2.6 SSE 11 17 6 9 1016.4 1016.4 0.0
16/07:50am 17.4 16.8 13.5 78 2.2 S 9 13 5 7 1016.3 1016.3 0.0
16/07:30am 16.7 15.8 13.6 82 1.7 S 11 13 6 7 1016.1 1016.1 0.0
16/07:28am 16.6 15.5 13.1 80 2.0 S 11 13 6 7 1016.1 1016.1 0.0
16/07:00am 16.3 15.8 13.8 85 1.4 S 9 15 5 8 1015.6 1015.6 0.0
16/06:30am 13.7 14.5 12.4 92 0.7 CALM 0 6 0 3 1015.2 1015.2 0.0
16/06:00am 12.9 11.8 12.0 94 0.5 WSW 9 11 5 6 1014.6 1014.6 0.0
16/05:59am 13.0 11.9 12.1 94 0.5 WSW 9 11 5 6 1014.6 1014.6 0.0
16/05:30am 13.6 13.3 12.7 94 0.5 SW 6 7 3 4 1014.0 1014.0 0.0
16/05:25am 13.4 13.0 12.5 94 0.5 SW 6 7 3 4 1014.0 1014.0 0.0
16/05:00am 12.8 11.9 11.5 92 0.7 WNW 7 11 4 6 1013.7 1013.7 0.0
16/04:30am 13.8 14.5 12.2 90 0.9 CALM 0 0 0 0 1013.6 1013.6 0.0
16/04:00am 14.5 13.9 12.4 87 1.1 S 7 9 4 5 1013.5 1013.5 0.0
16/03:30am 14.8 13.9 12.5 86 1.3 S 9 11 5 6 1013.4 1013.4 0.0
16/03:00am 15.8 14.9 12.5 81 1.8 SSE 9 13 5 7 1013.5 1013.5 0.0
16/02:30am 16.1 15.3 12.8 81 1.8 SSE 9 11 5 6 1013.4 1013.4 0.0
16/02:00am 16.1 14.9 12.8 81 1.8 S 11 17 6 9 1013.4 1013.4 0.0
16/01:30am 16.6 15.5 13.1 80 2.0 SSE 11 17 6 9 1013.3 1013.3 0.0
16/01:00am 16.2 15.0 12.7 80 1.9 S 11 15 6 8 1013.3 1013.3 0.0
16/12:30am 16.9 15.3 12.8 77 2.3 SSE 13 17 7 9 1013.2 1013.2 0.0
16/12:00am 17.1 15.9 12.8 76 2.4 S 11 15 6 8 1012.9 1012.9 0.0
 
Date/Time
EDT
Temp
°C
App
Temp
°C
Dew
Point
°C
Rel
Hum
%
Delta-T
°C
Wind Press
QNH
hPa
Press
MSL
hPa
Rain since
9am
mm
Dir  Spd
km/h
Gust
km/h
Spd
kts
Gust
kts
15/11:30pm 17.3 14.5 12.6 74 2.6 S 19 26 10 14 1012.6 1012.6 0.0
15/11:00pm 18.0 14.4 12.9 72 2.9 S 24 33 13 18 1012.3 1012.3 0.0
15/10:30pm 18.5 14.5 12.9 70 3.1 SSW 26 37 14 20 1011.5 1011.5 0.0
15/10:00pm 19.1 13.6 12.6 66 3.6 S 33 43 18 23 1010.5 1010.5 0.0
15/09:30pm 20.1 15.3 11.8 59 4.6 S 28 41 15 22 1009.8 1009.8 0.0
15/09:00pm 21.7 17.5 9.6 46 6.5 SSE 22 33 12 18 1009.1 1009.1 0.0
15/08:30pm 25.6 21.4 -1.2 17 12.1 SW 11 15 6 8 1008.3 1008.3 0.0
15/08:00pm 26.5 21.1 -1.3 16 12.7 W 17 22 9 12 1007.7 1007.7 0.0
15/07:30pm 28.8 20.5 -4.6 11 14.6 W 30 41 16 22 1007.1 1007.1 0.0
15/07:00pm 29.7 22.0 -2.7 12 14.8 W 28 41 15 22 1006.5 1006.5 0.0
15/06:30pm 29.9 23.0 -2.6 12 14.8 W 24 41 13 22 1005.8 1005.8 0.0
15/06:00pm 29.9 21.4 -3.7 11 15.1 W 32 43 17 23 1005.4 1005.4 0.0
15/05:30pm 30.4 22.1 -4.6 10 15.5 W 30 48 16 26 1005.1 1005.1 0.0
15/05:13pm 30.8 21.8 -5.7 9 15.9 W 33 54 18 29 1004.8 1004.8 0.0
15/05:00pm 31.0 20.9 -5.5 9 16.0 WSW 39 54 21 29 1004.7 1004.7 0.0
15/04:48pm 31.2 22.3 -5.4 9 16.1 WSW 33 52 18 28 1004.6 1004.6 0.0
15/04:40pm 31.6 21.6 -5.1 9 16.2 WNW 39 50 21 27 1004.6 1004.6 0.0
15/04:33pm 32.4 24.1 -4.5 9 16.6 W 30 50 16 27 1004.3 1004.3 0.0
15/04:30pm 31.9 24.1 -3.5 10 16.1 W 28 41 15 22 1004.5 1004.5 0.0
15/04:00pm 32.5 24.4 -3.0 10 16.5 WSW 30 41 16 22 1004.5 1004.5 0.0
15/03:36pm 32.4 23.7 -3.1 10 16.4 W 33 52 18 28 1004.5 1004.5 0.0
15/03:30pm 32.4 23.0 -3.1 10 16.4 W 37 56 20 30 1004.5 1004.5 0.0
15/03:20pm 32.5 23.3 -1.7 11 16.1 WSW 37 54 20 29 1004.6 1004.6 0.0
15/03:14pm 32.4 22.8 -1.8 11 16.1 WSW 39 50 21 27 1004.7 1004.7 0.0
15/03:00pm 31.7 21.5 -3.6 10 16.1 W 41 56 22 30 1005.0 1005.0 0.0
15/02:44pm 32.0 22.3 -2.1 11 15.9 W 39 52 21 28 1005.1 1005.1 0.0
15/02:30pm 32.1 22.8 -2.0 11 16.0 WNW 37 56 20 30 1005.4 1005.4 0.0
15/02:00pm 32.5 24.0 0.6 13 15.7 W 35 54 19 29 1005.6 1005.6 0.0
15/01:36pm 30.9 23.3 -1.8 12 15.2 NW 28 50 15 27 1006.0 1006.0 0.0
15/01:30pm 31.0 23.0 0.4 14 14.8 NW 32 44 17 24 1006.0 1006.0 0.0
15/01:16pm 31.1 23.4 2.3 16 14.4 W 32 50 17 27 1006.2 1006.2 0.0
15/01:12pm 30.5 22.8 0.0 14 14.6 W 30 50 16 27 1006.2 1006.2 0.0
15/01:00pm 30.7 23.6 1.1 15 14.5 W 28 39 15 21 1006.4 1006.4 0.0
15/12:30pm 29.9 21.5 1.4 16 13.9 WNW 35 52 19 28 1007.0 1007.0 0.0
15/12:03pm 29.5 21.5 1.9 17 13.6 WNW 33 54 18 29 1007.7 1007.7 0.0
15/12:00pm 29.6 22.6 2.0 17 13.6 W 28 48 15 26 1007.6 1007.6 0.0
15/11:30am 28.5 20.9 2.7 19 12.8 WSW 32 43 17 23 1008.5 1008.5 0.0
15/11:00am 27.2 19.6 3.0 21 12.0 WSW 32 44 17 24 1009.0 1009.0 0.0
15/10:30am 27.0 20.5 2.8 21 11.9 WSW 26 44 14 24 1009.1 1009.1 0.0
15/10:14am 26.9 20.2 3.4 22 11.7 WSW 28 50 15 27 1009.2 1009.2 0.0
15/10:00am 26.8 19.8 4.0 23 11.4 WSW 30 43 16 23 1009.2 1009.2 0.0
15/09:52am 26.7 20.0 3.9 23 11.4 W 28 46 15 25 1009.2 1009.2 0.0
15/09:30am 25.9 18.6 4.4 25 10.8 W 32 44 17 24 1009.1 1009.1 0.0
15/09:01am 25.0 17.2 4.7 27 10.2 W 35 54 19 29 1009.0 1009.0 0.0
15/09:00am 24.8 16.9 4.5 27 10.2 W 35 52 19 28 1009.0 1009.0 0.0
15/08:34am 24.1 17.6 4.5 28 9.7 W 28 48 15 26 1009.3 1009.3 0.0
15/08:30am 24.2 18.6 5.5 30 9.5 W 24 37 13 20 1009.2 1009.2 0.0
15/08:00am 23.1 15.7 5.1 31 9.0 W 33 54 18 29 1009.1 1009.1 0.0
15/07:42am 22.5 16.1 5.4 33 8.5 W 28 46 15 25 1008.9 1008.9 0.0
15/07:30am 21.9 16.1 6.2 36 7.9 W 26 43 14 23 1009.0 1009.0 0.0
15/07:27am 21.7 16.2 6.0 36 7.9 W 24 41 13 22 1009.0 1009.0 0.0

Other formats

Comma delimited format used in spreadsheet applications
http://www.bom.gov.au/fwo/IDN60801/IDN60801.95748.axf

JavaScript Object Notation format (JSON) in row-major order
http://www.bom.gov.au/fwo/IDN60801/IDN60801.95748.json

Data quality

Most of these data are generated automatically and are frequently updated. Quality checks on data are not normally performed. It is possible for incorrect values to appear. Refer to information at About Latest Weather Observations and please check the disclaimer before using these data.